createdAt,value
2022-11-29T00:02:36.726Z,84.46
2022-11-29T00:07:37.614Z,84.44
2022-11-29T00:12:37.107Z,84.44
2022-11-29T00:17:37.345Z,84.44
2022-11-29T00:22:39.564Z,84.46
2022-11-29T00:27:43.862Z,84.43
2022-11-29T00:32:43.200Z,84.42
2022-11-29T00:37:42.330Z,84.42
2022-11-29T00:42:42.641Z,84.43
2022-11-29T00:47:41.777Z,84.39
2022-11-29T00:52:40.828Z,84.40
2022-11-29T00:57:40.053Z,84.41
2022-11-29T01:02:39.487Z,84.35
2022-11-29T01:07:38.505Z,84.33
2022-11-29T01:12:42.560Z,84.34
2022-11-29T01:17:44.246Z,84.34
2022-11-29T01:22:44.279Z,84.35
2022-11-29T01:27:45.154Z,84.35
2022-11-29T01:32:50.502Z,84.37
2022-11-29T01:37:49.790Z,84.36
2022-11-29T01:42:48.388Z,84.27
2022-11-29T01:47:53.072Z,84.25
2022-11-29T01:52:52.677Z,84.21
2022-11-29T01:57:52.432Z,84.23
2022-11-29T02:02:57.775Z,84.21
2022-11-29T02:08:01.366Z,84.17
2022-11-29T02:13:14.269Z,84.18
2022-11-29T02:18:21.201Z,84.19
2022-11-29T02:23:50.092Z,84.20
2022-11-29T02:29:29.938Z,84.18
2022-11-29T02:34:53.382Z,84.18
2022-11-29T02:40:31.958Z,84.16
2022-11-29T02:45:46.063Z,84.15
2022-11-29T02:50:54.965Z,84.09
2022-11-29T02:56:07.279Z,84.12
2022-11-29T03:01:18.942Z,84.13
2022-11-29T03:06:32.348Z,84.11
2022-11-29T03:11:46.933Z,84.13
2022-11-29T03:17:01.882Z,84.15
2022-11-29T03:22:14.283Z,84.16
2022-11-29T03:27:18.505Z,84.11
2022-11-29T03:32:29.124Z,84.09
2022-11-29T03:37:41.901Z,84.04
2022-11-29T03:42:51.258Z,84.04
2022-11-29T03:48:03.319Z,84.03
2022-11-29T03:53:18.952Z,84.05
2022-11-29T03:58:54.097Z,84.01
2022-11-29T04:04:25.088Z,84.05
2022-11-29T04:09:58.812Z,84.05
2022-11-29T04:15:47.996Z,84.04
2022-11-29T04:21:32.895Z,83.99
2022-11-29T04:27:26.037Z,84.00
2022-11-29T04:33:10.427Z,84.02
2022-11-29T04:38:39.342Z,84.04
2022-11-29T04:44:02.475Z,84.06
2022-11-29T04:49:27.353Z,84.05
2022-11-29T04:54:36.347Z,84.08
2022-11-29T04:59:45.372Z,84.12
2022-11-29T05:05:01.033Z,84.17
2022-11-29T05:10:33.876Z,84.25
2022-11-29T05:15:58.930Z,84.32
2022-11-29T05:21:12.813Z,84.40
2022-11-29T05:26:22.296Z,84.48
2022-11-29T05:31:38.721Z,84.51
2022-11-29T05:36:50.751Z,84.62
2022-11-29T05:42:10.003Z,84.62
2022-11-29T05:47:11.330Z,84.65
2022-11-29T05:52:30.152Z,84.66
2022-11-29T05:57:40.251Z,84.66
2022-11-29T06:02:59.710Z,84.66
2022-11-29T06:08:07.195Z,84.68
2022-11-29T06:13:22.357Z,84.71
2022-11-29T06:18:46.480Z,84.68
2022-11-29T06:24:20.536Z,84.68
2022-11-29T06:29:36.902Z,84.69
2022-11-29T06:34:48.472Z,84.68
2022-11-29T06:39:48.836Z,84.68
2022-11-29T06:44:51.138Z,84.67
2022-11-29T06:49:56.847Z,84.66
2022-11-29T06:55:14.236Z,84.64
2022-11-29T07:00:21.807Z,84.63
2022-11-29T07:05:28.933Z,84.65
2022-11-29T07:10:30.563Z,84.68
2022-11-29T07:15:32.116Z,84.67
2022-11-29T07:20:41.259Z,84.71
2022-11-29T07:25:53.392Z,84.63
2022-11-29T07:31:05.331Z,84.68
2022-11-29T07:36:19.106Z,84.71
2022-11-29T07:41:29.013Z,84.70
2022-11-29T07:46:28.786Z,84.69
2022-11-29T07:51:28.303Z,84.69
2022-11-29T07:56:27.847Z,84.64
2022-11-29T08:01:27.018Z,84.59
2022-11-29T08:06:30.108Z,84.53
2022-11-29T08:11:29.847Z,84.50
2022-11-29T08:16:28.881Z,84.36
2022-11-29T08:21:28.652Z,84.23
2022-11-29T08:26:31.630Z,84.14
2022-11-29T08:31:30.578Z,83.93
2022-11-29T08:36:29.230Z,83.90
2022-11-29T08:41:28.068Z,83.84
2022-11-29T08:46:46.929Z,83.92
2022-11-29T08:51:46.049Z,83.90
2022-11-29T09:02:13.737Z,83.83
2022-11-29T09:07:16.284Z,83.72
2022-11-29T09:12:15.611Z,83.60
2022-11-29T09:17:14.541Z,83.59
2022-11-29T09:22:13.712Z,83.36
2022-11-29T09:27:12.634Z,83.28
2022-11-29T09:32:11.817Z,83.35
2022-11-29T09:37:10.848Z,83.01
2022-11-29T09:42:37.596Z,82.83
2022-11-29T09:48:21.444Z,82.54
2022-11-29T09:53:43.659Z,82.58
2022-11-29T09:58:51.829Z,82.49
2022-11-29T10:03:57.233Z,82.16
2022-11-29T10:09:03.946Z,82.03
2022-11-29T10:14:13.447Z,81.92
2022-11-29T10:19:24.311Z,81.95
2022-11-29T10:24:29.823Z,81.66
2022-11-29T10:29:29.068Z,81.54
2022-11-29T10:34:32.183Z,81.18
2022-11-29T10:39:42.458Z,81.14
2022-11-29T10:44:41.387Z,81.34
2022-11-29T10:49:42.053Z,81.07
2022-11-29T10:54:45.407Z,80.81
2022-11-29T11:00:00.175Z,80.31
2022-11-29T11:05:00.272Z,80.42
2022-11-29T11:10:00.991Z,80.26
2022-11-29T11:15:29.746Z,80.01
2022-11-29T11:20:31.300Z,80.05
2022-11-29T11:25:36.041Z,79.63
2022-11-29T11:30:34.933Z,78.81
2022-11-29T11:35:34.195Z,78.86
2022-11-29T11:40:36.505Z,78.73
2022-11-29T11:45:40.434Z,78.38
2022-11-29T11:50:45.933Z,78.03
2022-11-29T11:55:54.283Z,78.25
2022-11-29T12:01:05.687Z,78.59
2022-11-29T12:06:28.232Z,78.81
2022-11-29T12:11:33.152Z,78.69
2022-11-29T12:16:40.609Z,78.54
2022-11-29T12:21:48.032Z,78.16
2022-11-29T12:26:57.094Z,78.03
2022-11-29T12:32:16.099Z,77.71
2022-11-29T12:37:27.558Z,77.91
2022-11-29T12:42:43.316Z,77.99
2022-11-29T12:47:57.299Z,77.99
2022-11-29T12:53:26.726Z,77.79
2022-11-29T12:58:34.547Z,77.98
2022-11-29T13:03:46.232Z,77.96
2022-11-29T13:09:26.802Z,77.99
2022-11-29T13:14:43.415Z,78.16
2022-11-29T13:20:03.461Z,78.24
2022-11-29T13:25:13.933Z,78.37
2022-11-29T13:30:19.072Z,78.41
2022-11-29T13:35:30.857Z,78.50
2022-11-29T13:40:53.146Z,78.60
2022-11-29T13:46:00.896Z,78.71
2022-11-29T13:51:21.107Z,78.82
2022-11-29T13:56:36.929Z,78.87
2022-11-29T14:01:51.807Z,78.95
2022-11-29T14:07:02.643Z,79.04
2022-11-29T14:12:19.550Z,79.08
2022-11-29T14:17:53.044Z,79.11
2022-11-29T14:23:19.115Z,79.15
2022-11-29T14:28:37.403Z,79.19
2022-11-29T14:34:02.004Z,79.24
2022-11-29T14:39:21.811Z,79.30
2022-11-29T14:44:26.394Z,79.36
2022-11-29T14:49:30.264Z,79.40
2022-11-29T14:54:29.427Z,79.41
2022-11-29T15:00:03.126Z,79.45
2022-11-29T15:05:17.867Z,79.49
2022-11-29T15:10:27.008Z,79.59
2022-11-29T15:15:42.255Z,79.73
2022-11-29T15:21:07.221Z,79.79
2022-11-29T15:26:09.811Z,79.85
2022-11-29T15:31:15.217Z,79.88
2022-11-29T15:36:21.233Z,79.89
2022-11-29T15:41:36.269Z,79.92
2022-11-29T15:46:37.984Z,79.91
2022-11-29T15:51:41.791Z,79.93
2022-11-29T15:56:46.289Z,79.82
2022-11-29T16:01:53.927Z,79.84
2022-11-29T16:06:55.154Z,79.79
2022-11-29T16:11:54.090Z,79.85
2022-11-29T16:16:58.484Z,79.88
2022-11-29T16:22:23.747Z,79.92
2022-11-29T16:27:25.147Z,79.96
2022-11-29T16:32:33.903Z,79.98
2022-11-29T16:37:43.360Z,79.98
2022-11-29T16:42:42.696Z,79.99
2022-11-29T16:47:58.194Z,80.02
2022-11-29T16:52:59.348Z,79.97
2022-11-29T16:57:58.850Z,79.86
2022-11-29T17:02:57.798Z,79.86
2022-11-29T17:07:57.232Z,79.94
2022-11-29T17:12:59.497Z,79.92
2022-11-29T17:17:58.570Z,79.79
2022-11-29T17:22:57.251Z,79.70
2022-11-29T17:27:58.211Z,79.69
2022-11-29T17:32:58.102Z,79.59
2022-11-29T17:37:57.446Z,79.37
2022-11-29T17:48:11.788Z,79.44
2022-11-29T17:53:12.137Z,79.49
2022-11-29T17:58:12.421Z,79.51
2022-11-29T18:03:11.804Z,79.50
2022-11-29T18:08:11.281Z,79.52
2022-11-29T18:13:10.583Z,79.40
2022-11-29T18:18:10.915Z,79.34
2022-11-29T18:23:10.756Z,79.32
2022-11-29T18:28:14.978Z,79.31
2022-11-29T18:33:14.608Z,79.36
2022-11-29T18:38:16.340Z,79.35
2022-11-29T18:43:16.988Z,79.35
2022-11-29T18:48:17.138Z,79.37
2022-11-29T18:53:20.800Z,79.37
2022-11-29T18:58:19.969Z,79.32
2022-11-29T19:03:23.168Z,79.32
2022-11-29T19:08:25.841Z,79.37
2022-11-29T19:13:24.750Z,79.39
2022-11-29T19:18:38.473Z,79.39
2022-11-29T19:23:39.074Z,79.36
2022-11-29T19:28:43.295Z,79.28
2022-11-29T19:34:06.076Z,79.10
2022-11-29T19:39:07.880Z,79.09
2022-11-29T19:44:12.010Z,78.66
2022-11-29T19:49:18.206Z,78.70
2022-11-29T19:54:42.994Z,78.69
2022-11-29T20:00:10.531Z,78.78
2022-11-29T20:05:16.671Z,78.86
2022-11-29T20:10:31.750Z,78.95
2022-11-29T20:15:35.337Z,78.98
2022-11-29T20:20:41.708Z,78.96
2022-11-29T20:25:49.336Z,78.97
2022-11-29T20:30:49.366Z,78.99
2022-11-29T20:35:51.396Z,78.96
2022-11-29T20:41:03.179Z,78.94
2022-11-29T20:46:03.833Z,78.86
2022-11-29T20:51:06.952Z,78.83
2022-11-29T20:56:07.566Z,78.81
2022-11-29T21:01:08.367Z,78.71
2022-11-29T21:06:15.050Z,78.63
2022-11-29T21:11:18.221Z,78.60
2022-11-29T21:16:20.001Z,78.60
2022-11-29T21:21:30.342Z,78.55
2022-11-29T21:26:41.348Z,78.52
2022-11-29T21:31:43.315Z,78.57
2022-11-29T21:36:45.687Z,78.67
2022-11-29T21:41:45.574Z,78.71
2022-11-29T21:46:50.371Z,78.60
2022-11-29T21:51:50.052Z,78.48
2022-11-29T21:56:49.597Z,78.27
2022-11-29T22:01:48.946Z,78.25
2022-11-29T22:06:48.458Z,78.32
2022-11-29T22:11:48.136Z,78.38
2022-11-29T22:16:52.543Z,78.36
2022-11-29T22:21:54.505Z,78.36
2022-11-29T22:26:55.421Z,78.39
2022-11-29T22:31:56.994Z,78.51
2022-11-29T22:36:56.376Z,78.47
2022-11-29T22:41:55.906Z,78.48
2022-11-29T22:46:55.538Z,78.50
2022-11-29T22:51:55.144Z,78.50
2022-11-29T22:56:53.922Z,78.47
2022-11-29T23:01:53.863Z,78.54
2022-11-29T23:06:54.004Z,78.55
2022-11-29T23:11:57.068Z,78.59
2022-11-29T23:16:59.241Z,78.63
2022-11-29T23:22:01.407Z,78.62
2022-11-29T23:27:06.156Z,78.68
2022-11-29T23:32:06.556Z,78.74
2022-11-29T23:37:05.122Z,78.76
2022-11-29T23:42:04.619Z,78.83
2022-11-29T23:47:07.324Z,78.84
2022-11-29T23:52:06.934Z,78.83
2022-11-29T23:57:05.898Z,78.87
